Time,TemperatureF,DewpointF,PressureIn,WindDirection,WindDirectionDegrees,WindSpeedMPH,WindSpeedGustMPH,Humidity,HourlyPrecipIn,Conditions,Clouds,dailyrainin,SoftwareType,DateUTC
2013-01-03 00:00:00,20.1,17.4,30.16,NW,306,3.0,9.0,89,0.00,,,0.00,VWS V14.01,2013-01-03 06:00:00,
2013-01-03 00:01:00,20.1,17.4,30.16,WNW,298,4.0,7.0,89,0.00,,,0.00,VWS V14.01,2013-01-03 06:01:00,
2013-01-03 00:06:00,19.9,17.2,30.16,WNW,293,2.0,7.0,89,0.00,,,0.00,VWS V14.01,2013-01-03 06:06:00,
2013-01-03 00:11:00,19.7,16.7,30.16,NW,314,4.0,10.0,88,0.00,,,0.00,VWS V14.01,2013-01-03 06:11:00,
2013-01-03 00:15:00,19.7,16.7,30.16,WNW,298,6.0,10.0,88,0.00,,,0.00,VWS V14.01,2013-01-03 06:15:00,
2013-01-03 00:16:00,19.5,16.5,30.16,WNW,301,3.0,8.0,88,0.00,,,0.00,VWS V14.01,2013-01-03 06:16:00,
2013-01-03 00:21:00,19.4,16.4,30.17,WNW,297,5.0,8.0,88,0.00,,,0.00,VWS V14.01,2013-01-03 06:21:00,
2013-01-03 00:27:00,19.3,16.6,30.17,WSW,246,3.0,8.0,89,0.00,,,0.00,VWS V14.01,2013-01-03 06:27:00,
2013-01-03 00:30:00,19.3,16.6,30.17,WNW,302,2.0,8.0,89,0.00,,,0.00,VWS V14.01,2013-01-03 06:30:00,
2013-01-03 00:32:00,19.2,16.2,30.17,WNW,290,4.0,7.0,88,0.00,,,0.00,VWS V14.01,2013-01-03 06:32:00,
2013-01-03 00:37:00,18.9,15.9,30.17,West,273,4.0,7.0,88,0.00,,,0.00,VWS V14.01,2013-01-03 06:37:00,
2013-01-03 00:42:00,18.5,15.3,30.17,WNW,300,5.0,9.0,87,0.00,,,0.00,VWS V14.01,2013-01-03 06:42:00,
2013-01-03 00:45:00,18.4,15.2,30.17,WNW,294,5.0,9.0,87,0.00,,,0.00,VWS V14.01,2013-01-03 06:45:00,
2013-01-03 00:47:00,18.3,15.4,30.17,West,277,4.0,6.0,88,0.00,,,0.00,VWS V14.01,2013-01-03 06:47:00,
2013-01-03 00:52:00,18.3,15.4,30.17,WNW,297,0.0,6.0,88,0.00,,,0.00,VWS V14.01,2013-01-03 06:52:00,
2013-01-03 00:58:00,18.3,15.4,30.17,WNW,293,5.0,9.0,88,0.00,,,0.00,VWS V14.01,2013-01-03 06:58:00,
2013-01-03 01:00:00,18.3,15.4,30.17,WNW,290,4.0,9.0,88,0.00,,,0.00,VWS V14.01,2013-01-03 07:00:00,
2013-01-03 01:03:00,18.1,15.1,30.17,NW,312,5.0,7.0,88,0.00,,,0.00,VWS V14.01,2013-01-03 07:03:00,
2013-01-03 01:08:00,18.0,14.8,30.18,NW,308,3.0,8.0,87,0.00,,,0.00,VWS V14.01,2013-01-03 07:08:00,
2013-01-03 01:13:00,17.9,14.9,30.18,WNW,294,9.0,9.0,88,0.00,,,0.00,VWS V14.01,2013-01-03 07:13:00,
2013-01-03 01:15:00,17.9,14.9,30.18,WNW,297,6.0,9.0,88,0.00,,,0.00,VWS V14.01,2013-01-03 07:15:00,
2013-01-03 01:18:00,17.7,14.5,30.18,WNW,295,3.0,6.0,87,0.00,,,0.00,VWS V14.01,2013-01-03 07:18:00,
2013-01-03 01:23:00,17.6,14.4,30.18,WSW,251,2.0,9.0,87,0.00,,,0.00,VWS V14.01,2013-01-03 07:23:00,
2013-01-03 01:28:00,17.5,14.3,30.18,NW,313,3.0,9.0,87,0.00,,,0.00,VWS V14.01,2013-01-03 07:28:00,
2013-01-03 01:30:00,17.5,14.3,30.18,NW,311,0.0,9.0,87,0.00,,,0.00,VWS V14.01,2013-01-03 07:30:00,
2013-01-03 01:33:00,17.5,14.3,30.18,WNW,290,3.0,9.0,87,0.00,,,0.00,VWS V14.01,2013-01-03 07:33:00,
2013-01-03 01:38:00,17.5,14.3,30.18,WNW,284,5.0,9.0,87,0.00,,,0.00,VWS V14.01,2013-01-03 07:38:00,
2013-01-03 01:43:00,17.4,14.2,30.18,WNW,287,3.0,9.0,87,0.00,,,0.00,VWS V14.01,2013-01-03 07:43:00,
2013-01-03 01:45:00,17.4,14.2,30.18,WSW,250,3.0,9.0,87,0.00,,,0.00,VWS V14.01,2013-01-03 07:45:00,
2013-01-03 01:49:00,17.4,14.2,30.19,WNW,298,2.0,4.0,87,0.00,,,0.00,VWS V14.01,2013-01-03 07:49:00,
2013-01-03 01:54:00,17.3,14.1,30.19,West,265,3.0,7.0,87,0.00,,,0.00,VWS V14.01,2013-01-03 07:54:00,
2013-01-03 01:59:00,17.3,14.1,30.19,NW,305,8.0,8.0,87,0.00,,,0.00,VWS V14.01,2013-01-03 07:59:00,
2013-01-03 02:00:00,17.3,14.1,30.19,WNW,298,3.0,7.0,87,0.00,,,0.00,VWS V14.01,2013-01-03 08:00:00,
2013-01-03 02:04:00,17.1,13.6,30.19,WNW,294,5.0,10.0,86,0.00,,,0.00,VWS V14.01,2013-01-03 08:04:00,
2013-01-03 02:09:00,17.0,13.8,30.20,NW,304,4.0,10.0,87,0.00,,,0.00,VWS V14.01,2013-01-03 08:09:00,
2013-01-03 02:14:00,17.0,13.8,30.20,West,279,3.0,6.0,87,0.00,,,0.00,VWS V14.01,2013-01-03 08:14:00,
2013-01-03 02:15:00,17.0,13.8,30.20,West,281,0.0,10.0,87,0.00,,,0.00,VWS V14.01,2013-01-03 08:15:00,
2013-01-03 02:20:00,16.9,13.7,30.20,NW,313,4.0,7.0,87,0.00,,,0.00,VWS V14.01,2013-01-03 08:20:00,
2013-01-03 02:25:00,16.8,13.4,30.20,WNW,294,2.0,8.0,86,0.00,,,0.00,VWS V14.01,2013-01-03 08:25:00,
2013-01-03 02:30:00,16.6,13.1,30.20,WNW,289,5.0,7.0,86,0.00,,,0.00,VWS V14.01,2013-01-03 08:30:00,
2013-01-03 02:35:00,16.5,13.1,30.21,WNW,290,3.0,7.0,86,0.00,,,0.00,VWS V14.01,2013-01-03 08:35:00,
2013-01-03 02:40:00,16.4,12.9,30.21,WNW,292,4.0,7.0,86,0.00,,,0.00,VWS V14.01,2013-01-03 08:40:00,
2013-01-03 02:45:00,16.3,12.9,30.21,NW,310,6.0,9.0,86,0.00,,,0.00,VWS V14.01,2013-01-03 08:45:00,
2013-01-03 02:50:00,16.2,12.8,30.21,SW,236,7.0,10.0,86,0.00,,,0.00,VWS V14.01,2013-01-03 08:50:00,
2013-01-03 02:55:00,16.1,12.7,30.21,WNW,301,4.0,12.0,86,0.00,,,0.00,VWS V14.01,2013-01-03 08:55:00,
2013-01-03 03:00:00,16.1,12.7,30.21,West,276,3.0,5.0,86,0.00,,,0.00,VWS V14.01,2013-01-03 09:00:00,
2013-01-03 03:05:00,16.1,12.7,30.21,West,276,7.0,13.0,86,0.00,,,0.00,VWS V14.01,2013-01-03 09:05:00,
2013-01-03 03:11:00,15.9,12.5,30.21,NW,307,3.0,13.0,86,0.00,,,0.00,VWS V14.01,2013-01-03 09:11:00,
2013-01-03 03:15:00,15.9,12.5,30.22,West,267,2.0,13.0,86,0.00,,,0.00,VWS V14.01,2013-01-03 09:15:00,
2013-01-03 03:16:00,15.9,12.5,30.21,West,272,4.0,6.0,86,0.00,,,0.00,VWS V14.01,2013-01-03 09:16:00,
2013-01-03 03:21:00,15.8,12.6,30.21,West,263,2.0,10.0,87,0.00,,,0.00,VWS V14.01,2013-01-03 09:21:00,
2013-01-03 03:26:00,15.7,12.3,30.22,WNW,298,3.0,10.0,86,0.00,,,0.00,VWS V14.01,2013-01-03 09:26:00,
2013-01-03 03:30:00,15.7,12.3,30.22,WNW,293,9.0,10.0,86,0.00,,,0.00,VWS V14.01,2013-01-03 09:30:00,
2013-01-03 03:31:00,15.7,12.3,30.22,WNW,288,4.0,9.0,86,0.00,,,0.00,VWS V14.01,2013-01-03 09:31:00,
2013-01-03 03:36:00,15.7,12.5,30.22,WNW,298,4.0,9.0,87,0.00,,,0.00,VWS V14.01,2013-01-03 09:36:00,
2013-01-03 03:41:00,15.5,11.8,30.22,West,261,4.0,11.0,85,0.00,,,0.00,VWS V14.01,2013-01-03 09:41:00,
2013-01-03 03:45:00,15.5,11.8,30.22,WNW,302,6.0,11.0,85,0.00,,,0.00,VWS V14.01,2013-01-03 09:45:00,
2013-01-03 03:46:00,15.4,11.7,30.22,NW,317,5.0,8.0,85,0.00,,,0.00,VWS V14.01,2013-01-03 09:46:00,
2013-01-03 03:51:00,15.2,11.5,30.22,West,276,3.0,10.0,85,0.00,,,0.00,VWS V14.01,2013-01-03 09:51:00,
2013-01-03 03:56:00,15.2,11.5,30.23,NW,321,8.0,10.0,85,0.00,,,0.00,VWS V14.01,2013-01-03 09:56:00,
2013-01-03 04:00:00,15.2,11.5,30.23,WNW,302,2.0,11.0,85,0.00,,,0.00,VWS V14.01,2013-01-03 10:00:00,
2013-01-03 04:01:00,15.1,11.4,30.23,NW,323,5.0,8.0,85,0.00,,,0.00,VWS V14.01,2013-01-03 10:01:00,
2013-01-03 04:07:00,15.1,11.4,30.23,WNW,302,8.0,9.0,85,0.00,,,0.00,VWS V14.01,2013-01-03 10:07:00,
2013-01-03 04:12:00,15.0,11.3,30.23,WNW,292,1.0,9.0,85,0.00,,,0.00,VWS V14.01,2013-01-03 10:12:00,
2013-01-03 04:15:00,15.0,11.3,30.23,WNW,301,3.0,9.0,85,0.00,,,0.00,VWS V14.01,2013-01-03 10:15:00,
2013-01-03 04:17:00,15.1,11.7,30.23,WNW,295,10.0,10.0,86,0.00,,,0.00,VWS V14.01,2013-01-03 10:17:00,
2013-01-03 04:22:00,15.0,11.6,30.23,WNW,302,2.0,10.0,86,0.00,,,0.00,VWS V14.01,2013-01-03 10:22:00,
2013-01-03 04:27:00,15.0,11.3,30.23,WNW,284,2.0,10.0,85,0.00,,,0.00,VWS V14.01,2013-01-03 10:27:00,
2013-01-03 04:30:00,15.0,11.3,30.23,WNW,296,3.0,10.0,85,0.00,,,0.00,VWS V14.01,2013-01-03 10:30:00,
2013-01-03 04:32:00,15.0,11.3,30.23,NW,317,5.0,5.0,85,0.00,,,0.00,VWS V14.01,2013-01-03 10:32:00,
2013-01-03 04:37:00,15.0,11.6,30.23,WNW,287,3.0,8.0,86,0.00,,,0.00,VWS V14.01,2013-01-03 10:37:00,
2013-01-03 04:42:00,14.9,11.2,30.23,WNW,286,6.0,8.0,85,0.00,,,0.00,VWS V14.01,2013-01-03 10:42:00,
2013-01-03 04:45:00,14.9,11.2,30.23,NW,311,2.0,8.0,85,0.00,,,0.00,VWS V14.01,2013-01-03 10:45:00,
2013-01-03 04:48:00,14.9,11.2,30.23,NW,318,5.0,10.0,85,0.00,,,0.00,VWS V14.01,2013-01-03 10:48:00,
2013-01-03 04:53:00,14.8,11.1,30.24,WNW,290,1.0,11.0,85,0.00,,,0.00,VWS V14.01,2013-01-03 10:53:00,
2013-01-03 04:58:00,15.0,11.6,30.24,NW,304,1.0,11.0,86,0.00,,,0.00,VWS V14.01,2013-01-03 10:58:00,
2013-01-03 05:00:00,15.0,11.6,30.24,West,281,2.0,11.0,86,0.00,,,0.00,VWS V14.01,2013-01-03 11:00:00,
2013-01-03 05:03:00,15.0,11.3,30.24,WNW,290,4.0,8.0,85,0.00,,,0.00,VWS V14.01,2013-01-03 11:03:00,
2013-01-03 05:08:00,14.8,11.1,30.24,NW,312,4.0,8.0,85,0.00,,,0.00,VWS V14.01,2013-01-03 11:08:00,
2013-01-03 05:13:00,14.7,11.0,30.24,WNW,300,2.0,8.0,85,0.00,,,0.00,VWS V14.01,2013-01-03 11:13:00,
2013-01-03 05:15:00,14.7,11.0,30.24,WNW,300,1.0,8.0,85,0.00,,,0.00,VWS V14.01,2013-01-03 11:15:00,
2013-01-03 05:18:00,14.6,10.9,30.25,NW,323,0.0,6.0,85,0.00,,,0.00,VWS V14.01,2013-01-03 11:18:00,
2013-01-03 05:23:00,14.6,10.9,30.25,WNW,292,1.0,6.0,85,0.00,,,0.00,VWS V14.01,2013-01-03 11:23:00,
2013-01-03 05:28:00,14.5,10.6,30.25,NW,315,2.0,8.0,84,0.00,,,0.00,VWS V14.01,2013-01-03 11:28:00,
2013-01-03 05:30:00,14.5,10.6,30.25,NW,315,2.0,8.0,84,0.00,,,0.00,VWS V14.01,2013-01-03 11:30:00,
2013-01-03 05:34:00,14.4,10.7,30.25,NNW,335,4.0,7.0,85,0.00,,,0.00,VWS V14.01,2013-01-03 11:34:00,
2013-01-03 05:39:00,14.3,10.6,30.26,WNW,294,4.0,7.0,85,0.00,,,0.00,VWS V14.01,2013-01-03 11:39:00,
2013-01-03 05:44:00,14.3,10.6,30.26,WNW,296,3.0,3.0,85,0.00,,,0.00,VWS V14.01,2013-01-03 11:44:00,
2013-01-03 05:45:00,14.3,10.6,30.26,WNW,296,3.0,7.0,85,0.00,,,0.00,VWS V14.01,2013-01-03 11:45:00,
2013-01-03 05:49:00,14.0,10.1,30.26,SW,225,1.0,10.0,84,0.00,,,0.00,VWS V14.01,2013-01-03 11:49:00,
2013-01-03 05:54:00,13.7,9.8,30.26,NW,317,8.0,10.0,84,0.00,,,0.00,VWS V14.01,2013-01-03 11:54:00,
2013-01-03 05:59:00,13.5,9.8,30.26,WNW,288,4.0,6.0,85,0.00,,,0.00,VWS V14.01,2013-01-03 11:59:00,
2013-01-03 06:00:00,13.5,9.6,30.26,NNW,334,3.0,11.0,84,0.00,,,0.00,VWS V14.01,2013-01-03 12:00:00,
2013-01-03 06:04:00,13.4,9.7,30.26,WNW,289,1.0,7.0,85,0.00,,,0.00,VWS V14.01,2013-01-03 12:04:00,
2013-01-03 06:09:00,13.4,9.7,30.26,WSW,250,2.0,10.0,85,0.00,,,0.00,VWS V14.01,2013-01-03 12:09:00,
2013-01-03 06:14:00,13.4,9.7,30.27,WNW,296,3.0,5.0,85,0.00,,,0.00,VWS V14.01,2013-01-03 12:14:00,
2013-01-03 06:15:00,13.4,9.7,30.27,WNW,287,3.0,10.0,85,0.00,,,0.00,VWS V14.01,2013-01-03 12:15:00,
2013-01-03 06:20:00,13.4,9.7,30.27,NW,315,5.0,8.0,85,0.00,,,0.00,VWS V14.01,2013-01-03 12:20:00,
2013-01-03 06:25:00,13.1,9.2,30.27,WNW,300,2.0,9.0,84,0.00,,,0.00,VWS V14.01,2013-01-03 12:25:00,
2013-01-03 06:30:00,13.1,9.2,30.28,NNW,348,3.0,4.0,84,0.00,,,0.00,VWS V14.01,2013-01-03 12:30:00,
2013-01-03 06:35:00,13.0,9.4,30.28,NW,323,3.0,7.0,85,0.00,,,0.00,VWS V14.01,2013-01-03 12:35:00,
2013-01-03 06:40:00,12.8,8.9,30.28,North,355,3.0,7.0,84,0.00,,,0.00,VWS V14.01,2013-01-03 12:40:00,
2013-01-03 06:45:00,12.7,8.8,30.28,SSW,209,5.0,8.0,84,0.00,,,0.00,VWS V14.01,2013-01-03 12:45:00,
2013-01-03 06:50:00,12.6,8.7,30.28,WNW,290,2.0,8.0,84,0.00,,,0.00,VWS V14.01,2013-01-03 12:50:00,
2013-01-03 06:56:00,12.7,9.1,30.28,WNW,294,3.0,8.0,85,0.00,,,0.00,VWS V14.01,2013-01-03 12:56:00,
2013-01-03 07:00:00,12.7,9.1,30.29,North,355,3.0,8.0,85,0.00,,,0.00,VWS V14.01,2013-01-03 13:00:00,
2013-01-03 07:01:00,12.6,9.0,30.28,NW,304,5.0,6.0,85,0.00,,,0.00,VWS V14.01,2013-01-03 13:01:00,
2013-01-03 07:06:00,12.3,8.4,30.29,NW,304,1.0,6.0,84,0.00,,,0.00,VWS V14.01,2013-01-03 13:06:00,
2013-01-03 07:11:00,12.0,8.1,30.29,WNW,298,4.0,7.0,84,0.00,,,0.00,VWS V14.01,2013-01-03 13:11:00,
2013-01-03 07:15:00,11.8,7.9,30.29,WNW,298,6.0,7.0,84,0.00,,,0.00,VWS V14.01,2013-01-03 13:15:00,
2013-01-03 07:16:00,11.6,7.7,30.29,West,276,2.0,7.0,84,0.00,,,0.00,VWS V14.01,2013-01-03 13:16:00,
2013-01-03 07:21:00,11.4,7.8,30.29,WNW,302,3.0,7.0,85,0.00,,,0.00,VWS V14.01,2013-01-03 13:21:00,
2013-01-03 07:26:00,11.2,7.3,30.29,WNW,294,6.0,8.0,84,0.00,,,0.00,VWS V14.01,2013-01-03 13:26:00,
2013-01-03 07:30:00,11.0,7.1,30.29,SW,230,1.0,8.0,84,0.00,,,0.00,VWS V14.01,2013-01-03 13:30:00,
2013-01-03 07:31:00,11.0,7.1,30.29,NW,306,3.0,6.0,84,0.00,,,0.00,VWS V14.01,2013-01-03 13:31:00,
2013-01-03 07:36:00,10.9,7.5,30.29,NW,304,4.0,6.0,86,0.00,,,0.00,VWS V14.01,2013-01-03 13:36:00,
2013-01-03 07:41:00,10.8,7.2,30.29,WNW,299,4.0,6.0,85,0.00,,,0.00,VWS V14.01,2013-01-03 13:41:00,
2013-01-03 07:45:00,10.7,7.1,30.29,WNW,298,2.0,7.0,85,0.00,,,0.00,VWS V14.01,2013-01-03 13:45:00,
2013-01-03 07:47:00,10.5,6.9,30.29,NW,305,3.0,5.0,85,0.00,,,0.00,VWS V14.01,2013-01-03 13:47:00,
2013-01-03 07:52:00,10.4,6.8,30.30,West,273,1.0,6.0,85,0.00,,,0.00,VWS V14.01,2013-01-03 13:52:00,
2013-01-03 07:57:00,10.4,6.8,30.30,WNW,291,2.0,8.0,85,0.00,,,0.00,VWS V14.01,2013-01-03 13:57:00,
2013-01-03 08:00:00,10.4,7.1,30.30,WNW,296,0.0,8.0,86,0.00,,,0.00,VWS V14.01,2013-01-03 14:00:00,
2013-01-03 08:02:00,10.4,7.1,30.30,WNW,294,1.0,7.0,86,0.00,,,0.00,VWS V14.01,2013-01-03 14:02:00,
2013-01-03 08:07:00,10.2,6.6,30.30,West,270,5.0,7.0,85,0.00,,,0.00,VWS V14.01,2013-01-03 14:07:00,
2013-01-03 08:12:00,10.1,6.5,30.30,WSW,257,4.0,7.0,85,0.00,,,0.00,VWS V14.01,2013-01-03 14:12:00,
2013-01-03 08:15:00,10.1,6.5,30.30,West,274,0.0,7.0,85,0.00,,,0.00,VWS V14.01,2013-01-03 14:15:00,
2013-01-03 08:17:00,10.2,6.8,30.30,NW,321,6.0,6.0,86,0.00,,,0.00,VWS V14.01,2013-01-03 14:17:00,
2013-01-03 08:22:00,10.0,6.4,30.30,West,274,4.0,8.0,85,0.00,,,0.00,VWS V14.01,2013-01-03 14:22:00,
2013-01-03 08:27:00,9.9,6.3,30.31,WNW,285,3.0,8.0,85,0.00,,,0.00,VWS V14.01,2013-01-03 14:27:00,
2013-01-03 08:30:00,9.9,6.3,30.31,WNW,288,3.0,8.0,85,0.00,,,0.00,VWS V14.01,2013-01-03 14:30:00,
2013-01-03 08:32:00,9.8,6.2,30.31,WNW,301,3.0,9.0,85,0.00,,,0.00,VWS V14.01,2013-01-03 14:32:00,
2013-01-03 08:38:00,9.9,6.6,30.31,SW,223,1.0,9.0,86,0.00,,,0.00,VWS V14.01,2013-01-03 14:38:00,
2013-01-03 08:43:00,9.8,6.5,30.32,West,276,1.0,9.0,86,0.00,,,0.00,VWS V14.01,2013-01-03 14:43:00,
2013-01-03 08:45:00,9.8,6.5,30.32,West,276,3.0,9.0,86,0.00,,,0.00,VWS V14.01,2013-01-03 14:45:00,
2013-01-03 08:48:00,9.8,6.2,30.32,WNW,296,3.0,9.0,85,0.00,,,0.00,VWS V14.01,2013-01-03 14:48:00,
2013-01-03 08:53:00,9.6,6.0,30.32,WSW,251,6.0,10.0,85,0.00,,,0.00,VWS V14.01,2013-01-03 14:53:00,
2013-01-03 08:58:00,9.7,6.6,30.32,West,259,3.0,10.0,87,0.00,,,0.00,VWS V14.01,2013-01-03 14:58:00,
2013-01-03 09:00:00,9.7,6.6,30.32,West,280,2.0,10.0,87,0.00,,,0.00,VWS V14.01,2013-01-03 15:00:00,
2013-01-03 09:03:00,9.7,6.6,30.33,West,267,1.0,8.0,87,0.00,,,0.00,VWS V14.01,2013-01-03 15:03:00,
2013-01-03 09:08:00,9.7,6.6,30.33,WSW,256,1.0,8.0,87,0.00,,,0.00,VWS V14.01,2013-01-03 15:08:00,
2013-01-03 09:13:00,9.8,6.7,30.33,NNW,336,4.0,8.0,87,0.00,,,0.00,VWS V14.01,2013-01-03 15:13:00,
2013-01-03 09:15:00,9.8,6.7,30.33,NNW,336,4.0,8.0,87,0.00,,,0.00,VWS V14.01,2013-01-03 15:15:00,
2013-01-03 09:19:00,9.8,6.7,30.33,NW,313,0.0,7.0,87,0.00,,,0.00,VWS V14.01,2013-01-03 15:19:00,
2013-01-03 09:24:00,9.8,6.7,30.33,SSW,198,1.0,7.0,87,0.00,,,0.00,VWS V14.01,2013-01-03 15:24:00,
2013-01-03 09:29:00,9.9,6.8,30.33,WNW,285,0.0,0.0,87,0.00,,,0.00,VWS V14.01,2013-01-03 15:29:00,
2013-01-03 09:30:00,9.9,6.8,30.33,WNW,285,0.0,7.0,87,0.00,,,0.00,VWS V14.01,2013-01-03 15:30:00,
2013-01-03 09:34:00,10.1,7.0,30.33,NW,315,4.0,7.0,87,0.00,,,0.00,VWS V14.01,2013-01-03 15:34:00,
2013-01-03 09:39:00,10.1,7.0,30.33,WNW,297,1.0,7.0,87,0.00,,,0.00,VWS V14.01,2013-01-03 15:39:00,
2013-01-03 09:44:00,10.3,7.2,30.33,WNW,295,2.0,2.0,87,0.00,,,0.00,VWS V14.01,2013-01-03 15:44:00,
2013-01-03 09:45:00,10.2,7.1,30.33,WNW,295,0.0,7.0,87,0.00,,,0.00,VWS V14.01,2013-01-03 15:45:00,
2013-01-03 09:49:00,10.5,7.2,30.34,West,281,4.0,10.0,86,0.00,,,0.00,VWS V14.01,2013-01-03 15:49:00,
2013-01-03 09:54:00,10.4,7.1,30.34,NW,307,4.0,10.0,86,0.00,,,0.00,VWS V14.01,2013-01-03 15:54:00,
2013-01-03 09:59:00,10.6,7.5,30.34,NW,311,1.0,4.0,87,0.00,,,0.00,VWS V14.01,2013-01-03 15:59:00,
2013-01-03 10:00:00,10.6,7.5,30.33,NW,311,4.0,10.0,87,0.00,,,0.00,VWS V14.01,2013-01-03 16:00:00,
2013-01-03 10:05:00,10.8,7.4,30.34,WNW,302,3.0,9.0,86,0.00,,,0.00,VWS V14.01,2013-01-03 16:05:00,
2013-01-03 10:10:00,10.7,7.1,30.34,WNW,285,2.0,9.0,85,0.00,,,0.00,VWS V14.01,2013-01-03 16:10:00,
2013-01-03 10:15:00,10.7,7.3,30.35,NNW,342,1.0,6.0,86,0.00,,,0.00,VWS V14.01,2013-01-03 16:15:00,
2013-01-03 10:20:00,10.8,7.4,30.35,WNW,288,0.0,8.0,86,0.00,,,0.00,VWS V14.01,2013-01-03 16:20:00,
2013-01-03 10:25:00,10.9,7.3,30.35,NNW,336,1.0,8.0,85,0.00,,,0.00,VWS V14.01,2013-01-03 16:25:00,
2013-01-03 10:30:00,10.7,6.8,30.35,WSW,245,6.0,8.0,84,0.00,,,0.00,VWS V14.01,2013-01-03 16:30:00,
2013-01-03 10:35:00,10.6,6.7,30.35,WNW,300,6.0,8.0,84,0.00,,,0.00,VWS V14.01,2013-01-03 16:35:00,
2013-01-03 10:40:00,10.8,7.2,30.35,West,281,1.0,8.0,85,0.00,,,0.00,VWS V14.01,2013-01-03 16:40:00,
2013-01-03 10:45:00,10.7,6.8,30.35,West,276,0.0,5.0,84,0.00,,,0.00,VWS V14.01,2013-01-03 16:45:00,
2013-01-03 10:51:00,10.7,6.6,30.35,ENE,76,2.0,10.0,83,0.00,,,0.00,VWS V14.01,2013-01-03 16:51:00,
2013-01-03 10:56:00,10.8,6.9,30.35,NNE,16,1.0,11.0,84,0.00,,,0.00,VWS V14.01,2013-01-03 16:56:00,
2013-01-03 11:00:00,11.1,7.5,30.36,NW,309,2.0,11.0,85,0.00,,,0.00,VWS V14.01,2013-01-03 17:00:00,
2013-01-03 11:01:00,11.2,7.3,30.35,NNW,329,2.0,7.0,84,0.00,,,0.00,VWS V14.01,2013-01-03 17:01:00,
2013-01-03 11:06:00,11.5,7.3,30.35,NW,323,2.0,7.0,83,0.00,,,0.00,VWS V14.01,2013-01-03 17:06:00,
2013-01-03 11:11:00,11.7,7.6,30.35,WNW,298,1.0,7.0,83,0.00,,,0.00,VWS V14.01,2013-01-03 17:11:00,
2013-01-03 11:15:00,11.8,7.6,30.35,WNW,302,4.0,10.0,83,0.00,,,0.00,VWS V14.01,2013-01-03 17:15:00,
2013-01-03 11:16:00,11.7,7.3,30.34,NW,323,4.0,5.0,82,0.00,,,0.00,VWS V14.01,2013-01-03 17:16:00,
2013-01-03 11:21:00,12.1,7.9,30.34,WNW,296,1.0,5.0,83,0.00,,,0.00,VWS V14.01,2013-01-03 17:21:00,
2013-01-03 11:26:00,12.6,8.2,30.34,SSW,207,0.0,7.0,82,0.00,,,0.00,VWS V14.01,2013-01-03 17:26:00,
2013-01-03 11:30:00,12.6,7.9,30.34,SSW,204,3.0,7.0,81,0.00,,,0.00,VWS V14.01,2013-01-03 17:30:00,
2013-01-03 11:31:00,12.6,7.9,30.34,WSW,258,0.0,4.0,81,0.00,,,0.00,VWS V14.01,2013-01-03 17:31:00,
2013-01-03 11:36:00,12.8,8.1,30.34,NW,314,4.0,7.0,81,0.00,,,0.00,VWS V14.01,2013-01-03 17:36:00,
2013-01-03 11:41:00,12.5,7.8,30.33,WNW,293,0.0,10.0,81,0.00,,,0.00,VWS V14.01,2013-01-03 17:41:00,
2013-01-03 11:45:00,12.6,7.9,30.33,NW,319,1.0,10.0,81,0.00,,,0.00,VWS V14.01,2013-01-03 17:45:00,
2013-01-03 11:46:00,12.8,7.8,30.33,WNW,298,3.0,7.0,80,0.00,,,0.00,VWS V14.01,2013-01-03 17:46:00,
2013-01-03 11:52:00,12.7,7.7,30.34,West,274,3.0,9.0,80,0.00,,,0.00,VWS V14.01,2013-01-03 17:52:00,
2013-01-03 11:57:00,13.0,8.3,30.33,WNW,282,0.0,9.0,81,0.00,,,0.00,VWS V14.01,2013-01-03 17:57:00,
2013-01-03 12:00:00,13.1,8.4,30.33,WNW,300,4.0,10.0,81,0.00,,,0.00,VWS V14.01,2013-01-03 18:00:00,
2013-01-03 12:02:00,12.8,7.5,30.33,NW,325,2.0,7.0,79,0.00,,,0.00,VWS V14.01,2013-01-03 18:02:00,
2013-01-03 12:07:00,13.0,8.0,30.33,WNW,303,5.0,7.0,80,0.00,,,0.00,VWS V14.01,2013-01-03 18:07:00,
2013-01-03 12:12:00,13.1,7.8,30.33,NW,319,1.0,7.0,79,0.00,,,0.00,VWS V14.01,2013-01-03 18:12:00,
2013-01-03 12:15:00,13.2,8.2,30.33,NW,313,0.0,7.0,80,0.00,,,0.00,VWS V14.01,2013-01-03 18:15:00,
2013-01-03 12:17:00,13.6,8.3,30.33,NW,312,4.0,9.0,79,0.00,,,0.00,VWS V14.01,2013-01-03 18:17:00,
2013-01-03 12:22:00,13.5,8.2,30.33,NW,320,4.0,9.0,79,0.00,,,0.00,VWS V14.01,2013-01-03 18:22:00,
2013-01-03 12:27:00,13.6,8.0,30.33,ENE,67,0.0,9.0,78,0.00,,,0.00,VWS V14.01,2013-01-03 18:27:00,
2013-01-03 12:30:00,13.7,8.1,30.32,WNW,288,2.0,9.0,78,0.00,,,0.00,VWS V14.01,2013-01-03 18:30:00,
2013-01-03 12:32:00,13.9,8.3,30.32,West,275,5.0,7.0,78,0.00,,,0.00,VWS V14.01,2013-01-03 18:32:00,
2013-01-03 12:38:00,13.6,8.0,30.32,SW,234,3.0,12.0,78,0.00,,,0.00,VWS V14.01,2013-01-03 18:38:00,
2013-01-03 12:43:00,13.7,8.1,30.31,West,270,0.0,12.0,78,0.00,,,0.00,VWS V14.01,2013-01-03 18:43:00,
2013-01-03 12:45:00,13.8,8.2,30.31,SSE,150,4.0,12.0,78,0.00,,,0.00,VWS V14.01,2013-01-03 18:45:00,
2013-01-03 12:48:00,13.9,8.3,30.31,SE,142,1.0,6.0,78,0.00,,,0.00,VWS V14.01,2013-01-03 18:48:00,
2013-01-03 12:53:00,13.2,7.3,30.32,WNW,299,7.0,8.0,77,0.00,,,0.00,VWS V14.01,2013-01-03 18:53:00,
2013-01-03 12:58:00,13.1,7.8,30.32,NW,323,0.0,8.0,79,0.00,,,0.00,VWS V14.01,2013-01-03 18:58:00,
2013-01-03 13:00:00,13.1,7.8,30.32,NW,323,0.0,8.0,79,0.00,,,0.00,VWS V14.01,2013-01-03 19:00:00,
2013-01-03 13:03:00,13.0,7.4,30.32,WNW,300,4.0,9.0,78,0.00,,,0.00,VWS V14.01,2013-01-03 19:03:00,
2013-01-03 13:08:00,12.8,7.0,30.32,WNW,303,5.0,9.0,77,0.00,,,0.00,VWS V14.01,2013-01-03 19:08:00,
2013-01-03 13:13:00,12.7,7.2,30.32,ESE,117,0.0,9.0,78,0.00,,,0.00,VWS V14.01,2013-01-03 19:13:00,
2013-01-03 13:15:00,12.7,7.2,30.32,SW,229,1.0,9.0,78,0.00,,,0.00,VWS V14.01,2013-01-03 19:15:00,
2013-01-03 13:18:00,12.7,6.3,30.32,NW,313,3.0,8.0,75,0.00,,,0.00,VWS V14.01,2013-01-03 19:18:00,
2013-01-03 13:30:00,12.6,6.2,30.31,NE,56,0.0,8.0,75,0.00,,,0.00,VWS V14.01,2013-01-03 19:30:00,
2013-01-03 13:45:00,13.3,6.9,30.32,NNW,334,0.0,9.0,75,0.00,,,0.00,VWS V14.01,2013-01-03 19:45:00,
2013-01-03 13:51:00,13.2,6.5,30.32,West,280,1.0,9.0,74,0.00,,,0.00,VWS V14.01,2013-01-03 19:51:00,
2013-01-03 13:56:00,12.9,5.9,30.32,WNW,288,0.0,9.0,73,0.00,,,0.00,VWS V14.01,2013-01-03 19:56:00,
2013-01-03 14:00:00,12.8,6.1,30.32,WSW,257,0.0,9.0,74,0.00,,,0.00,VWS V14.01,2013-01-03 20:00:00,
2013-01-03 14:01:00,12.9,6.5,30.32,WNW,284,4.0,4.0,75,0.00,,,0.00,VWS V14.01,2013-01-03 20:01:00,
2013-01-03 14:07:00,13.2,6.5,30.32,WNW,283,1.0,4.0,74,0.00,,,0.00,VWS V14.01,2013-01-03 20:07:00,
2013-01-03 14:12:00,13.4,6.7,30.32,WNW,298,0.0,4.0,74,0.00,,,0.00,VWS V14.01,2013-01-03 20:12:00,
2013-01-03 14:15:00,13.5,6.5,30.32,West,279,0.0,4.0,73,0.00,,,0.00,VWS V14.01,2013-01-03 20:15:00,
2013-01-03 14:17:00,13.6,6.6,30.32,West,274,2.0,4.0,73,0.00,,,0.00,VWS V14.01,2013-01-03 20:17:00,
2013-01-03 14:22:00,13.4,6.4,30.32,WNW,286,2.0,9.0,73,0.00,,,0.00,VWS V14.01,2013-01-03 20:22:00,
2013-01-03 14:27:00,13.3,6.3,30.32,North,355,2.0,9.0,73,0.00,,,0.00,VWS V14.01,2013-01-03 20:27:00,
2013-01-03 14:30:00,13.4,6.4,30.32,ESE,109,1.0,9.0,73,0.00,,,0.00,VWS V14.01,2013-01-03 20:30:00,
2013-01-03 14:32:00,13.3,6.6,30.32,NW,307,2.0,4.0,74,0.00,,,0.00,VWS V14.01,2013-01-03 20:32:00,
2013-01-03 14:37:00,13.6,6.9,30.32,ENE,69,2.0,4.0,74,0.00,,,0.00,VWS V14.01,2013-01-03 20:37:00,
2013-01-03 14:42:00,13.7,6.7,30.33,ESE,123,1.0,4.0,73,0.00,,,0.00,VWS V14.01,2013-01-03 20:42:00,
2013-01-03 14:45:00,13.8,7.1,30.33,West,274,2.0,4.0,74,0.00,,,0.00,VWS V14.01,2013-01-03 20:45:00,
2013-01-03 14:47:00,14.0,7.2,30.33,SE,130,1.0,4.0,74,0.00,,,0.00,VWS V14.01,2013-01-03 20:47:00,
2013-01-03 14:52:00,13.9,6.9,30.33,SE,138,1.0,6.0,73,0.00,,,0.00,VWS V14.01,2013-01-03 20:52:00,
2013-01-03 14:58:00,13.8,6.8,30.33,SE,134,1.0,6.0,73,0.00,,,0.00,VWS V14.01,2013-01-03 20:58:00,
2013-01-03 15:00:00,13.7,6.4,30.33,NE,44,1.0,6.0,72,0.00,,,0.00,VWS V14.01,2013-01-03 21:00:00,
2013-01-03 15:03:00,13.6,6.6,30.33,WNW,284,0.0,2.0,73,0.00,,,0.00,VWS V14.01,2013-01-03 21:03:00,
2013-01-03 15:08:00,13.8,7.1,30.33,ESE,119,0.0,2.0,74,0.00,,,0.00,VWS V14.01,2013-01-03 21:08:00,
2013-01-03 15:13:00,13.9,7.2,30.33,SW,235,1.0,2.0,74,0.00,,,0.00,VWS V14.01,2013-01-03 21:13:00,
2013-01-03 15:15:00,13.9,6.9,30.33,WSW,237,1.0,2.0,73,0.00,,,0.00,VWS V14.01,2013-01-03 21:15:00,
2013-01-03 15:18:00,13.9,6.9,30.33,SSW,204,1.0,2.0,73,0.00,,,0.00,VWS V14.01,2013-01-03 21:18:00,
2013-01-03 15:23:00,13.6,6.6,30.33,East,84,0.0,2.0,73,0.00,,,0.00,VWS V14.01,2013-01-03 21:23:00,
2013-01-03 15:28:00,13.1,6.4,30.33,East,99,1.0,4.0,74,0.00,,,0.00,VWS V14.01,2013-01-03 21:28:00,
2013-01-03 15:30:00,13.1,6.4,30.33,East,99,1.0,4.0,74,0.00,,,0.00,VWS V14.01,2013-01-03 21:30:00,
2013-01-03 15:34:00,12.8,6.4,30.32,ENE,78,0.0,4.0,75,0.00,,,0.00,VWS V14.01,2013-01-03 21:34:00,
2013-01-03 15:39:00,12.7,6.6,30.32,East,82,0.0,4.0,76,0.00,,,0.00,VWS V14.01,2013-01-03 21:39:00,
2013-01-03 15:44:00,12.7,6.6,30.32,NE,49,0.0,0.0,76,0.00,,,0.00,VWS V14.01,2013-01-03 21:44:00,
2013-01-03 15:45:00,12.7,6.6,30.32,NE,49,0.0,4.0,76,0.00,,,0.00,VWS V14.01,2013-01-03 21:45:00,
2013-01-03 15:49:00,12.7,6.9,30.32,West,267,0.0,3.0,77,0.00,,,0.00,VWS V14.01,2013-01-03 21:49:00,
2013-01-03 15:54:00,12.7,6.9,30.32,SSE,162,0.0,4.0,77,0.00,,,0.00,VWS V14.01,2013-01-03 21:54:00,
2013-01-03 15:59:00,12.7,6.9,30.32,NE,52,0.0,1.0,77,0.00,,,0.00,VWS V14.01,2013-01-03 21:59:00,
2013-01-03 16:00:00,12.7,6.9,30.32,NE,51,1.0,4.0,77,0.00,,,0.00,VWS V14.01,2013-01-03 22:00:00,
2013-01-03 16:05:00,12.6,6.8,30.32,SE,130,2.0,4.0,77,0.00,,,0.00,VWS V14.01,2013-01-03 22:05:00,
2013-01-03 16:10:00,12.5,7.0,30.32,NE,34,1.0,4.0,78,0.00,,,0.00,VWS V14.01,2013-01-03 22:10:00,
2013-01-03 16:15:00,12.5,7.0,30.33,NNW,341,0.0,2.0,78,0.00,,,0.00,VWS V14.01,2013-01-03 22:15:00,
2013-01-03 16:20:00,12.4,7.1,30.33,WNW,301,0.0,4.0,79,0.00,,,0.00,VWS V14.01,2013-01-03 22:20:00,
2013-01-03 16:25:00,12.3,7.0,30.32,SSW,213,0.0,4.0,79,0.00,,,0.00,VWS V14.01,2013-01-03 22:25:00,
2013-01-03 16:30:00,12.3,7.3,30.32,East,89,0.0,2.0,80,0.00,,,0.00,VWS V14.01,2013-01-03 22:30:00,
2013-01-03 16:35:00,12.2,7.2,30.32,West,281,0.0,2.0,80,0.00,,,0.00,VWS V14.01,2013-01-03 22:35:00,
2013-01-03 16:41:00,12.2,7.2,30.32,NW,324,5.0,5.0,80,0.00,,,0.00,VWS V14.01,2013-01-03 22:41:00,
2013-01-03 16:45:00,12.1,7.4,30.32,SW,227,0.0,5.0,81,0.00,,,0.00,VWS V14.01,2013-01-03 22:45:00,
2013-01-03 16:46:00,12.1,7.4,30.32,WNW,303,1.0,2.0,81,0.00,,,0.00,VWS V14.01,2013-01-03 22:46:00,
2013-01-03 16:51:00,11.9,7.2,30.32,North,360,5.0,5.0,81,0.00,,,0.00,VWS V14.01,2013-01-03 22:51:00,
2013-01-03 16:56:00,11.9,7.5,30.32,WSW,252,0.0,5.0,82,0.00,,,0.00,VWS V14.01,2013-01-03 22:56:00,
2013-01-03 17:00:00,11.8,7.4,30.32,WNW,284,0.0,5.0,82,0.00,,,0.00,VWS V14.01,2013-01-03 23:00:00,
2013-01-03 17:01:00,11.8,7.4,30.32,NNE,18,0.0,3.0,82,0.00,,,0.00,VWS V14.01,2013-01-03 23:01:00,
2013-01-03 17:06:00,11.8,7.6,30.32,SW,226,2.0,5.0,83,0.00,,,0.00,VWS V14.01,2013-01-03 23:06:00,
2013-01-03 17:11:00,11.8,7.6,30.32,North,360,0.0,5.0,83,0.00,,,0.00,VWS V14.01,2013-01-03 23:11:00,
2013-01-03 17:15:00,11.8,7.6,30.32,South,182,0.0,5.0,83,0.00,,,0.00,VWS V14.01,2013-01-03 23:15:00,
2013-01-03 17:16:00,11.7,7.6,30.32,South,175,0.0,1.0,83,0.00,,,0.00,VWS V14.01,2013-01-03 23:16:00,
2013-01-03 17:21:00,11.7,7.6,30.32,West,268,0.0,4.0,83,0.00,,,0.00,VWS V14.01,2013-01-03 23:21:00,
2013-01-03 17:26:00,11.5,7.3,30.32,West,269,0.0,4.0,83,0.00,,,0.00,VWS V14.01,2013-01-03 23:26:00,
2013-01-03 17:30:00,11.5,7.3,30.32,West,271,1.0,4.0,83,0.00,,,0.00,VWS V14.01,2013-01-03 23:30:00,
2013-01-03 17:32:00,11.4,7.2,30.32,NE,52,0.0,1.0,83,0.00,,,0.00,VWS V14.01,2013-01-03 23:32:00,
2013-01-03 17:37:00,11.2,7.1,30.32,ENE,71,0.0,2.0,83,0.00,,,0.00,VWS V14.01,2013-01-03 23:37:00,
2013-01-03 17:42:00,11.1,7.2,30.31,NE,42,0.0,2.0,84,0.00,,,0.00,VWS V14.01,2013-01-03 23:42:00,
2013-01-03 17:45:00,11.2,7.3,30.31,ENE,67,0.0,2.0,84,0.00,,,0.00,VWS V14.01,2013-01-03 23:45:00,
2013-01-03 17:47:00,11.2,7.6,30.31,ESE,102,1.0,2.0,85,0.00,,,0.00,VWS V14.01,2013-01-03 23:47:00,
2013-01-03 17:52:00,11.2,7.6,30.31,ENE,58,0.0,4.0,85,0.00,,,0.00,VWS V14.01,2013-01-03 23:52:00,
2013-01-03 17:57:00,11.2,7.6,30.31,NW,319,1.0,4.0,85,0.00,,,0.00,VWS V14.01,2013-01-03 23:57:00,
2013-01-03 18:00:00,11.3,7.7,30.31,ENE,66,1.0,4.0,85,0.00,,,0.00,VWS V14.01,2013-01-04 00:00:00,
2013-01-03 18:02:00,11.3,7.7,30.31,NNW,336,0.0,3.0,85,0.00,,,0.00,VWS V14.01,2013-01-04 00:02:00,
2013-01-03 18:07:00,11.3,7.7,30.31,WSW,252,0.0,3.0,85,0.00,,,0.00,VWS V14.01,2013-01-04 00:07:00,
2013-01-03 18:12:00,11.3,7.7,30.30,ENE,73,1.0,3.0,85,0.00,,,0.00,VWS V14.01,2013-01-04 00:12:00,
2013-01-03 18:15:00,11.2,7.6,30.30,ENE,73,0.0,3.0,85,0.00,,,0.00,VWS V14.01,2013-01-04 00:15:00,
2013-01-03 18:17:00,11.2,7.6,30.30,SW,221,0.0,2.0,85,0.00,,,0.00,VWS V14.01,2013-01-04 00:17:00,
2013-01-03 18:23:00,11.0,7.4,30.30,NE,39,1.0,3.0,85,0.00,,,0.00,VWS V14.01,2013-01-04 00:23:00,
2013-01-03 18:28:00,10.9,7.5,30.30,ENE,69,0.0,3.0,86,0.00,,,0.00,VWS V14.01,2013-01-04 00:28:00,
2013-01-03 18:30:00,11.0,7.6,30.30,WNW,298,0.0,3.0,86,0.00,,,0.00,VWS V14.01,2013-01-04 00:30:00,
2013-01-03 18:33:00,10.9,7.5,30.30,NE,48,1.0,2.0,86,0.00,,,0.00,VWS V14.01,2013-01-04 00:33:00,
2013-01-03 18:38:00,10.9,7.5,30.30,ENE,59,2.0,2.0,86,0.00,,,0.00,VWS V14.01,2013-01-04 00:38:00,
2013-01-03 18:43:00,10.8,7.4,30.29,NNE,31,0.0,2.0,86,0.00,,,0.00,VWS V14.01,2013-01-04 00:43:00,
2013-01-03 18:45:00,10.9,7.5,30.29,SW,227,1.0,5.0,86,0.00,,,0.00,VWS V14.01,2013-01-04 00:45:00,
2013-01-03 18:48:00,10.9,7.5,30.29,NE,38,2.0,3.0,86,0.00,,,0.00,VWS V14.01,2013-01-04 00:48:00,
2013-01-03 18:53:00,10.9,7.5,30.29,ENE,59,2.0,3.0,86,0.00,,,0.00,VWS V14.01,2013-01-04 00:53:00,
2013-01-03 18:58:00,10.9,7.5,30.29,NE,40,2.0,3.0,86,0.00,,,0.00,VWS V14.01,2013-01-04 00:58:00,
2013-01-03 19:00:00,10.9,7.5,30.29,NE,41,0.0,3.0,86,0.00,,,0.00,VWS V14.01,2013-01-04 01:00:00,
2013-01-03 19:03:00,11.0,7.9,30.29,WSW,256,2.0,4.0,87,0.00,,,0.00,VWS V14.01,2013-01-04 01:03:00,
2013-01-03 19:08:00,11.0,7.9,30.29,NE,49,3.0,4.0,87,0.00,,,0.00,VWS V14.01,2013-01-04 01:08:00,
2013-01-03 19:13:00,11.1,8.0,30.29,ENE,71,2.0,6.0,87,0.00,,,0.00,VWS V14.01,2013-01-04 01:13:00,
2013-01-03 19:15:00,11.1,8.0,30.29,ENE,71,2.0,6.0,87,0.00,,,0.00,VWS V14.01,2013-01-04 01:15:00,
2013-01-03 19:19:00,11.2,8.1,30.28,SE,135,1.0,4.0,87,0.00,,,0.00,VWS V14.01,2013-01-04 01:19:00,
2013-01-03 19:24:00,11.4,8.3,30.28,NNW,327,1.0,4.0,87,0.00,,,0.00,VWS V14.01,2013-01-04 01:24:00,
2013-01-03 19:29:00,11.6,8.7,30.28,SSE,167,1.0,4.0,88,0.00,,,0.00,VWS V14.01,2013-01-04 01:29:00,
2013-01-03 19:30:00,11.6,8.5,30.28,SSW,196,1.0,4.0,87,0.00,,,0.00,VWS V14.01,2013-01-04 01:30:00,
2013-01-03 19:34:00,11.8,8.9,30.27,West,263,3.0,5.0,88,0.00,,,0.00,VWS V14.01,2013-01-04 01:34:00,
2013-01-03 19:39:00,11.9,8.8,30.27,North,360,2.0,7.0,87,0.00,,,0.00,VWS V14.01,2013-01-04 01:39:00,
2013-01-03 19:44:00,12.1,9.0,30.26,ENE,58,3.0,5.0,87,0.00,,,0.00,VWS V14.01,2013-01-04 01:44:00,
2013-01-03 19:45:00,12.1,9.0,30.26,South,185,3.0,7.0,87,0.00,,,0.00,VWS V14.01,2013-01-04 01:45:00,
2013-01-03 19:49:00,12.3,9.4,30.26,East,97,2.0,6.0,88,0.00,,,0.00,VWS V14.01,2013-01-04 01:49:00,
2013-01-03 19:55:00,12.5,9.4,30.26,WNW,296,3.0,6.0,87,0.00,,,0.00,VWS V14.01,2013-01-04 01:55:00,
2013-01-03 20:00:00,12.5,9.4,30.26,SE,124,5.0,5.0,87,0.00,,,0.00,VWS V14.01,2013-01-04 02:00:00,
2013-01-03 20:05:00,12.7,9.6,30.26,SW,223,0.0,5.0,87,0.00,,,0.00,VWS V14.01,2013-01-04 02:05:00,
2013-01-03 20:10:00,12.8,9.7,30.25,WSW,244,1.0,5.0,87,0.00,,,0.00,VWS V14.01,2013-01-04 02:10:00,
2013-01-03 20:15:00,13.1,10.0,30.25,East,96,2.0,4.0,87,0.00,,,0.00,VWS V14.01,2013-01-04 02:15:00,
2013-01-03 20:20:00,13.2,10.1,30.25,ESE,115,2.0,9.0,87,0.00,,,0.00,VWS V14.01,2013-01-04 02:20:00,
2013-01-03 20:25:00,13.4,10.3,30.25,NNE,20,3.0,9.0,87,0.00,,,0.00,VWS V14.01,2013-01-04 02:25:00,
2013-01-03 20:30:00,13.5,10.4,30.25,NNE,30,1.0,7.0,87,0.00,,,0.00,VWS V14.01,2013-01-04 02:30:00,
2013-01-03 20:35:00,13.7,10.6,30.24,SSE,156,2.0,7.0,87,0.00,,,0.00,VWS V14.01,2013-01-04 02:35:00,
2013-01-03 20:41:00,13.9,10.8,30.24,ENE,57,2.0,7.0,87,0.00,,,0.00,VWS V14.01,2013-01-04 02:41:00,
2013-01-03 20:45:00,13.9,10.8,30.24,NE,55,2.0,7.0,87,0.00,,,0.00,VWS V14.01,2013-01-04 02:45:00,
2013-01-03 20:46:00,13.9,10.8,30.24,NE,55,3.0,5.0,87,0.00,,,0.00,VWS V14.01,2013-01-04 02:46:00,
2013-01-03 20:51:00,14.0,10.9,30.24,East,86,3.0,7.0,87,0.00,,,0.00,VWS V14.01,2013-01-04 02:51:00,
2013-01-03 20:56:00,14.0,10.9,30.23,East,90,2.0,7.0,87,0.00,,,0.00,VWS V14.01,2013-01-04 02:56:00,
2013-01-03 21:00:00,13.9,10.8,30.23,NNE,32,0.0,7.0,87,0.00,,,0.00,VWS V14.01,2013-01-04 03:00:00,
2013-01-03 21:01:00,13.9,10.8,30.23,ENE,72,1.0,4.0,87,0.00,,,0.00,VWS V14.01,2013-01-04 03:01:00,
2013-01-03 21:06:00,13.9,10.8,30.22,East,95,2.0,4.0,87,0.00,,,0.00,VWS V14.01,2013-01-04 03:06:00,
2013-01-03 21:11:00,13.9,10.8,30.22,ENE,72,2.0,6.0,87,0.00,,,0.00,VWS V14.01,2013-01-04 03:11:00,
2013-01-03 21:15:00,13.9,10.8,30.22,ENE,77,3.0,6.0,87,0.00,,,0.00,VWS V14.01,2013-01-04 03:15:00,
2013-01-03 21:16:00,13.8,10.6,30.23,NNW,335,2.0,5.0,87,0.00,,,0.00,VWS V14.01,2013-01-04 03:16:00,
2013-01-03 21:22:00,13.7,10.6,30.22,South,186,2.0,6.0,87,0.00,,,0.00,VWS V14.01,2013-01-04 03:22:00,
2013-01-03 21:27:00,13.9,11.0,30.22,NNW,342,1.0,10.0,88,0.00,,,0.00,VWS V14.01,2013-01-04 03:27:00,
2013-01-03 21:30:00,13.9,10.8,30.22,NNW,348,1.0,10.0,87,0.00,,,0.00,VWS V14.01,2013-01-04 03:30:00,
2013-01-03 21:32:00,13.9,10.8,30.22,SSE,157,2.0,6.0,87,0.00,,,0.00,VWS V14.01,2013-01-04 03:32:00,
2013-01-03 21:37:00,13.8,10.6,30.22,East,96,2.0,7.0,87,0.00,,,0.00,VWS V14.01,2013-01-04 03:37:00,
2013-01-03 21:42:00,13.7,10.6,30.22,ENE,57,2.0,8.0,87,0.00,,,0.00,VWS V14.01,2013-01-04 03:42:00,
2013-01-03 21:45:00,13.7,10.6,30.21,East,79,3.0,8.0,87,0.00,,,0.00,VWS V14.01,2013-01-04 03:45:00,
2013-01-03 21:47:00,13.7,10.8,30.21,ENE,62,2.0,7.0,88,0.00,,,0.00,VWS V14.01,2013-01-04 03:47:00,
2013-01-03 21:52:00,13.7,10.8,30.21,ENE,73,4.0,7.0,88,0.00,,,0.00,VWS V14.01,2013-01-04 03:52:00,
2013-01-03 21:57:00,13.7,10.8,30.21,ESE,105,2.0,7.0,88,0.00,,,0.00,VWS V14.01,2013-01-04 03:57:00,
2013-01-03 22:00:00,13.7,10.8,30.21,ESE,118,4.0,7.0,88,0.00,,,0.00,VWS V14.01,2013-01-04 04:00:00,
2013-01-03 22:02:00,13.7,10.8,30.21,ENE,65,4.0,8.0,88,0.00,,,0.00,VWS V14.01,2013-01-04 04:02:00,
2013-01-03 22:08:00,13.7,10.8,30.21,SSW,194,3.0,8.0,88,0.00,,,0.00,VWS V14.01,2013-01-04 04:08:00,
2013-01-03 22:13:00,13.7,10.8,30.21,West,261,2.0,8.0,88,0.00,,,0.00,VWS V14.01,2013-01-04 04:13:00,
2013-01-03 22:15:00,13.7,10.8,30.21,NNW,338,5.0,8.0,88,0.00,,,0.00,VWS V14.01,2013-01-04 04:15:00,
2013-01-03 22:18:00,13.7,10.8,30.21,SE,132,2.0,5.0,88,0.00,,,0.00,VWS V14.01,2013-01-04 04:18:00,
2013-01-03 22:23:00,13.8,10.9,30.21,SE,138,4.0,5.0,88,0.00,,,0.00,VWS V14.01,2013-01-04 04:23:00,
2013-01-03 22:28:00,13.9,11.3,30.21,NNE,18,3.0,5.0,89,0.00,,,0.00,VWS V14.01,2013-01-04 04:28:00,
2013-01-03 22:30:00,13.9,11.3,30.21,ENE,63,0.0,5.0,89,0.00,,,0.00,VWS V14.01,2013-01-04 04:30:00,
2013-01-03 22:33:00,14.0,11.1,30.21,WSW,250,4.0,4.0,88,0.00,,,0.00,VWS V14.01,2013-01-04 04:33:00,
2013-01-03 22:38:00,14.1,11.2,30.21,SE,131,2.0,5.0,88,0.00,,,0.00,VWS V14.01,2013-01-04 04:38:00,
2013-01-03 22:43:00,14.3,11.7,30.21,South,185,2.0,5.0,89,0.00,,,0.00,VWS V14.01,2013-01-04 04:43:00,
2013-01-03 22:45:00,14.3,11.7,30.21,ESE,118,2.0,5.0,89,0.00,,,0.00,VWS V14.01,2013-01-04 04:45:00,
2013-01-03 22:48:00,14.4,11.8,30.21,NE,46,3.0,5.0,89,0.00,,,0.00,VWS V14.01,2013-01-04 04:48:00,
2013-01-03 22:54:00,14.6,11.9,30.21,ENE,74,1.0,5.0,89,0.00,,,0.00,VWS V14.01,2013-01-04 04:54:00,
2013-01-03 22:59:00,14.8,12.1,30.21,NE,34,3.0,5.0,89,0.00,,,0.00,VWS V14.01,2013-01-04 04:59:00,
2013-01-03 23:00:00,14.7,12.1,30.21,East,83,3.0,6.0,89,0.00,,,0.00,VWS V14.01,2013-01-04 05:00:00,
2013-01-03 23:01:00,14.8,12.1,30.21,South,169,2.0,9.0,89,0.00,,,0.00,VWS V14.01,2013-01-04 05:01:00,
2013-01-03 23:04:00,15.0,12.4,30.21,North,11,2.0,9.0,89,0.00,,,0.00,VWS V14.01,2013-01-04 05:04:00,
2013-01-03 23:05:00,15.0,12.4,30.21,North,360,4.0,9.0,89,0.00,,,0.00,VWS V14.01,2013-01-04 05:05:00,
2013-01-03 23:11:00,15.0,12.4,30.20,ENE,59,0.0,9.0,89,0.00,,,0.00,VWS V14.01,2013-01-04 05:11:00,
2013-01-03 23:15:00,15.2,12.3,30.20,North,355,5.0,9.0,88,0.00,,,0.00,VWS V14.01,2013-01-04 05:15:00,
2013-01-03 23:16:00,15.2,12.3,30.20,NW,320,3.0,5.0,88,0.00,,,0.00,VWS V14.01,2013-01-04 05:16:00,
2013-01-03 23:21:00,15.3,12.4,30.20,NE,40,2.0,5.0,88,0.00,,,0.00,VWS V14.01,2013-01-04 05:21:00,
2013-01-03 23:26:00,15.4,12.5,30.20,NW,310,5.0,6.0,88,0.00,,,0.00,VWS V14.01,2013-01-04 05:26:00,
2013-01-03 23:30:00,15.4,12.5,30.20,East,96,2.0,6.0,88,0.00,,,0.00,VWS V14.01,2013-01-04 05:30:00,
2013-01-03 23:32:00,15.5,12.6,30.20,ESE,107,2.0,4.0,88,0.00,,,0.00,VWS V14.01,2013-01-04 05:32:00,
2013-01-03 23:37:00,15.6,12.7,30.20,ENE,70,1.0,6.0,88,0.00,,,0.00,VWS V14.01,2013-01-04 05:37:00,
2013-01-03 23:42:00,15.8,12.9,30.19,SW,231,1.0,7.0,88,0.00,,,0.00,VWS V14.01,2013-01-04 05:42:00,
2013-01-03 23:45:00,15.8,12.9,30.19,ENE,61,2.0,7.0,88,0.00,,,0.00,VWS V14.01,2013-01-04 05:45:00,
2013-01-03 23:47:00,15.9,13.0,30.18,NNW,344,3.0,7.0,88,0.00,,,0.00,VWS V14.01,2013-01-04 05:47:00,
2013-01-03 23:52:00,16.1,13.2,30.18,North,11,2.0,7.0,88,0.00,,,0.00,VWS V14.01,2013-01-04 05:52:00,
2013-01-03 23:57:00,16.2,13.3,30.18,NNW,346,4.0,7.0,88,0.00,,,0.00,VWS V14.01,2013-01-04 05:57:00,